In Rescue
 
Open Full Screen Window  High Contrast Mode
July 14, 2020 1:02 AM EDT
Weather Information
Wind Direction
  ---
Wind Speed
  00 kt (0 mph)
Wind Gust
  00 kt (0 mph)
Altimeter
30.01 in
Visibility
10 SM
Temperature
15° C
59° F
Dewpoint
13° C
55° F
Humidity
88%
1hr Rain Fall
00.00 in.
24hr Rain Fall
00.00 in.
Sky Condition
Clear
VFR

METAR KOSC 140502Z AUTO 00000KT 10SM CLR 15/13 A3001 RMK AO2 T01450125

FAA Disclaimer: The data displayed is for advisory purposes only and is not to be used for flight planning or operations.